sensor_id;sensor_type;location;lat;lon;timestamp;pressure;altitude;pressure_sealevel;temperature;humidity
11676;BME280;5894;42.768;23.404;2023-03-14T00:00:24;95910.16;;;3.31;100.00
11676;BME280;5894;42.768;23.404;2023-03-14T00:02:55;95899.63;;;3.21;100.00
11676;BME280;5894;42.768;23.404;2023-03-14T00:05:22;95900.91;;;3.19;100.00
11676;BME280;5894;42.768;23.404;2023-03-14T00:07:49;95868.59;;;2.93;100.00
11676;BME280;5894;42.768;23.404;2023-03-14T00:10:16;95893.81;;;3.14;100.00
11676;BME280;5894;42.768;23.404;2023-03-14T00:12:43;95889.59;;;3.08;100.00
11676;BME280;5894;42.768;23.404;2023-03-14T00:15:11;95884.84;;;3.00;100.00
11676;BME280;5894;42.768;23.404;2023-03-14T00:17:38;95879.63;;;3.00;100.00
11676;BME280;5894;42.768;23.404;2023-03-14T00:20:07;95871.72;;;2.90;100.00
11676;BME280;5894;42.768;23.404;2023-03-14T00:22:35;95783.78;;;2.27;100.00
11676;BME280;5894;42.768;23.404;2023-03-14T00:25:03;95829.75;;;2.65;100.00
11676;BME280;5894;42.768;23.404;2023-03-14T00:27:30;95838.34;;;2.65;100.00
11676;BME280;5894;42.768;23.404;2023-03-14T00:29:57;95858.69;;;2.90;100.00
11676;BME280;5894;42.768;23.404;2023-03-14T00:32:24;95820.47;;;2.74;100.00
11676;BME280;5894;42.768;23.404;2023-03-14T00:34:51;95855.31;;;2.94;100.00
11676;BME280;5894;42.768;23.404;2023-03-14T00:37:20;95857.69;;;2.96;100.00
11676;BME280;5894;42.768;23.404;2023-03-14T00:39:46;95836.03;;;2.90;100.00
11676;BME280;5894;42.768;23.404;2023-03-14T00:42:14;95859.66;;;3.11;99.25
11676;BME280;5894;42.768;23.404;2023-03-14T00:44:41;95843.97;;;3.06;100.00
11676;BME280;5894;42.768;23.404;2023-03-14T00:47:07;95836.69;;;3.08;97.22
11676;BME280;5894;42.768;23.404;2023-03-14T00:49:34;95850.63;;;3.23;97.44
11676;BME280;5894;42.768;23.404;2023-03-14T00:52:01;95838.91;;;3.21;96.28
11676;BME280;5894;42.768;23.404;2023-03-14T00:54:29;95837.34;;;3.20;96.69
11676;BME280;5894;42.768;23.404;2023-03-14T00:56:56;95829.38;;;3.05;98.04
11676;BME280;5894;42.768;23.404;2023-03-14T00:59:23;95842.66;;;3.35;95.33
11676;BME280;5894;42.768;23.404;2023-03-14T01:01:50;95845.78;;;3.32;95.25
11676;BME280;5894;42.768;23.404;2023-03-14T01:04:18;95835.59;;;3.30;95.60
11676;BME280;5894;42.768;23.404;2023-03-14T01:06:45;95831.69;;;3.33;96.01
11676;BME280;5894;42.768;23.404;2023-03-14T01:09:12;95834.28;;;3.28;92.43
11676;BME280;5894;42.768;23.404;2023-03-14T01:11:40;95806.84;;;3.20;92.96
11676;BME280;5894;42.768;23.404;2023-03-14T01:14:07;95833.56;;;3.38;93.34
11676;BME280;5894;42.768;23.404;2023-03-14T01:16:34;95752.41;;;2.92;95.01
11676;BME280;5894;42.768;23.404;2023-03-14T01:19:02;95825.50;;;3.39;94.97
11676;BME280;5894;42.768;23.404;2023-03-14T01:21:30;95813.44;;;3.33;94.84
11676;BME280;5894;42.768;23.404;2023-03-14T01:23:59;95777.88;;;3.17;96.07
11676;BME280;5894;42.768;23.404;2023-03-14T01:26:29;95811.44;;;3.40;95.58
11676;BME280;5894;42.768;23.404;2023-03-14T01:28:58;95776.47;;;3.04;98.32
11676;BME280;5894;42.768;23.404;2023-03-14T01:31:27;95822.47;;;3.20;100.00
11676;BME280;5894;42.768;23.404;2023-03-14T01:33:54;95808.38;;;3.16;100.00
11676;BME280;5894;42.768;23.404;2023-03-14T01:36:21;95801.28;;;3.12;100.00
11676;BME280;5894;42.768;23.404;2023-03-14T01:38:48;95759.88;;;2.83;100.00
11676;BME280;5894;42.768;23.404;2023-03-14T01:41:17;95795.56;;;3.10;100.00
11676;BME280;5894;42.768;23.404;2023-03-14T01:43:45;95809.53;;;3.30;100.00
11676;BME280;5894;42.768;23.404;2023-03-14T01:46:41;95807.97;;;3.35;99.86
11676;BME280;5894;42.768;23.404;2023-03-14T01:49:13;95792.88;;;3.31;99.22
11676;BME280;5894;42.768;23.404;2023-03-14T01:51:48;95798.88;;;3.32;98.74
11676;BME280;5894;42.768;23.404;2023-03-14T01:54:20;95790.19;;;3.26;99.76
11676;BME280;5894;42.768;23.404;2023-03-14T01:56:50;95796.34;;;3.10;100.00
11676;BME280;5894;42.768;23.404;2023-03-14T01:59:20;95790.78;;;3.02;100.00
11676;BME280;5894;42.768;23.404;2023-03-14T02:01:49;95780.72;;;2.83;100.00
11676;BME280;5894;42.768;23.404;2023-03-14T02:04:17;95792.56;;;2.96;100.00
11676;BME280;5894;42.768;23.404;2023-03-14T02:06:53;95774.00;;;2.87;100.00
11676;BME280;5894;42.768;23.404;2023-03-14T02:09:25;95761.13;;;2.76;100.00
11676;BME280;5894;42.768;23.404;2023-03-14T02:11:53;95790.97;;;2.95;100.00
11676;BME280;5894;42.768;23.404;2023-03-14T02:14:36;95745.41;;;2.66;100.00
11676;BME280;5894;42.768;23.404;2023-03-14T02:17:19;95763.25;;;2.79;100.00
11676;BME280;5894;42.768;23.404;2023-03-14T02:20:10;95776.13;;;2.90;100.00
11676;BME280;5894;42.768;23.404;2023-03-14T02:22:44;95784.78;;;3.01;100.00
11676;BME280;5894;42.768;23.404;2023-03-14T02:25:14;95780.91;;;3.04;100.00
11676;BME280;5894;42.768;23.404;2023-03-14T02:27:46;95776.94;;;2.96;95.60
11676;BME280;5894;42.768;23.404;2023-03-14T02:30:16;95773.16;;;2.82;94.87
11676;BME280;5894;42.768;23.404;2023-03-14T02:32:46;95779.56;;;2.69;99.41
11676;BME280;5894;42.768;23.404;2023-03-14T02:35:16;95745.00;;;2.52;100.00
11676;BME280;5894;42.768;23.404;2023-03-14T02:37:49;95769.09;;;2.64;98.02
11676;BME280;5894;42.768;23.404;2023-03-14T02:40:17;95730.97;;;2.26;100.00
11676;BME280;5894;42.768;23.404;2023-03-14T02:42:48;95789.09;;;2.58;100.00
11676;BME280;5894;42.768;23.404;2023-03-14T02:45:42;95744.53;;;2.28;100.00
11676;BME280;5894;42.768;23.404;2023-03-14T02:48:15;95784.84;;;2.52;100.00
11676;BME280;5894;42.768;23.404;2023-03-14T02:50:44;95789.50;;;2.50;100.00
11676;BME280;5894;42.768;23.404;2023-03-14T02:53:14;95768.78;;;2.34;100.00
11676;BME280;5894;42.768;23.404;2023-03-14T02:55:45;95787.69;;;2.51;100.00
11676;BME280;5894;42.768;23.404;2023-03-14T02:58:15;95763.56;;;2.34;100.00
11676;BME280;5894;42.768;23.404;2023-03-14T03:00:43;95798.16;;;2.56;100.00
11676;BME280;5894;42.768;23.404;2023-03-14T03:03:11;95795.66;;;2.66;100.00
11676;BME280;5894;42.768;23.404;2023-03-14T03:05:39;95776.59;;;2.61;100.00
11676;BME280;5894;42.768;23.404;2023-03-14T03:08:08;95795.19;;;2.69;100.00
11676;BME280;5894;42.768;23.404;2023-03-14T03:10:35;95796.44;;;2.67;100.00
11676;BME280;5894;42.768;23.404;2023-03-14T03:13:03;95795.47;;;2.73;100.00
11676;BME280;5894;42.768;23.404;2023-03-14T03:15:31;95788.44;;;2.73;100.00
11676;BME280;5894;42.768;23.404;2023-03-14T03:17:58;95785.25;;;2.66;100.00
11676;BME280;5894;42.768;23.404;2023-03-14T03:20:25;95791.97;;;2.62;100.00
11676;BME280;5894;42.768;23.404;2023-03-14T03:22:52;95785.47;;;2.60;100.00
11676;BME280;5894;42.768;23.404;2023-03-14T03:25:18;95798.16;;;2.56;100.00
11676;BME280;5894;42.768;23.404;2023-03-14T03:27:45;95762.78;;;2.33;100.00
11676;BME280;5894;42.768;23.404;2023-03-14T03:30:16;95765.44;;;2.38;100.00
11676;BME280;5894;42.768;23.404;2023-03-14T03:32:44;95736.72;;;2.28;100.00
11676;BME280;5894;42.768;23.404;2023-03-14T03:35:12;95792.72;;;2.57;100.00
11676;BME280;5894;42.768;23.404;2023-03-14T03:37:40;95786.38;;;2.48;100.00
11676;BME280;5894;42.768;23.404;2023-03-14T03:40:08;95762.97;;;2.27;100.00
11676;BME280;5894;42.768;23.404;2023-03-14T03:42:36;95777.69;;;2.38;100.00
11676;BME280;5894;42.768;23.404;2023-03-14T03:45:08;95788.09;;;2.38;100.00
11676;BME280;5894;42.768;23.404;2023-03-14T03:47:39;95769.38;;;2.19;100.00
11676;BME280;5894;42.768;23.404;2023-03-14T03:50:09;95793.66;;;2.25;100.00
11676;BME280;5894;42.768;23.404;2023-03-14T03:52:36;95798.53;;;2.21;100.00
11676;BME280;5894;42.768;23.404;2023-03-14T03:55:04;95765.56;;;1.83;100.00
11676;BME280;5894;42.768;23.404;2023-03-14T03:57:30;95772.41;;;1.89;100.00
11676;BME280;5894;42.768;23.404;2023-03-14T03:59:57;95809.03;;;2.04;100.00
11676;BME280;5894;42.768;23.404;2023-03-14T04:02:24;95802.25;;;2.03;100.00
11676;BME280;5894;42.768;23.404;2023-03-14T04:04:51;95797.16;;;1.92;100.00
11676;BME280;5894;42.768;23.404;2023-03-14T04:07:19;95757.09;;;1.71;100.00
11676;BME280;5894;42.768;23.404;2023-03-14T04:09:46;95786.75;;;1.92;100.00
11676;BME280;5894;42.768;23.404;2023-03-14T04:12:35;95794.13;;;2.00;100.00
11676;BME280;5894;42.768;23.404;2023-03-14T04:15:23;95791.25;;;1.96;100.00
11676;BME280;5894;42.768;23.404;2023-03-14T04:17:51;95758.56;;;1.83;100.00
11676;BME280;5894;42.768;23.404;2023-03-14T04:20:18;95786.75;;;2.13;100.00
11676;BME280;5894;42.768;23.404;2023-03-14T04:22:46;95787.00;;;2.12;100.00
11676;BME280;5894;42.768;23.404;2023-03-14T04:25:13;95745.66;;;1.72;100.00
11676;BME280;5894;42.768;23.404;2023-03-14T04:27:46;95784.16;;;1.92;100.00
11676;BME280;5894;42.768;23.404;2023-03-14T04:30:21;95745.31;;;1.63;100.00
11676;BME280;5894;42.768;23.404;2023-03-14T04:32:59;95780.38;;;1.82;100.00
11676;BME280;5894;42.768;23.404;2023-03-14T04:35:30;95764.97;;;1.76;100.00
11676;BME280;5894;42.768;23.404;2023-03-14T04:38:02;95763.41;;;1.75;100.00
11676;BME280;5894;42.768;23.404;2023-03-14T04:40:31;95763.81;;;1.89;100.00
11676;BME280;5894;42.768;23.404;2023-03-14T04:43:02;95753.13;;;1.85;100.00
11676;BME280;5894;42.768;23.404;2023-03-14T04:45:30;95760.41;;;1.88;100.00
11676;BME280;5894;42.768;23.404;2023-03-14T04:47:59;95718.19;;;1.59;100.00
11676;BME280;5894;42.768;23.404;2023-03-14T04:50:26;95734.13;;;1.46;100.00
11676;BME280;5894;42.768;23.404;2023-03-14T04:52:53;95704.25;;;1.43;100.00
11676;BME280;5894;42.768;23.404;2023-03-14T04:55:22;95759.91;;;1.86;100.00
11676;BME280;5894;42.768;23.404;2023-03-14T04:57:48;95711.16;;;1.55;100.00
11676;BME280;5894;42.768;23.404;2023-03-14T05:00:16;95754.50;;;1.93;100.00
11676;BME280;5894;42.768;23.404;2023-03-14T05:03:10;95757.53;;;1.84;100.00
11676;BME280;5894;42.768;23.404;2023-03-14T05:05:51;95753.03;;;1.80;100.00
11676;BME280;5894;42.768;23.404;2023-03-14T05:08:38;95699.88;;;1.49;100.00
11676;BME280;5894;42.768;23.404;2023-03-14T05:11:19;95728.69;;;1.64;100.00
11676;BME280;5894;42.768;23.404;2023-03-14T05:14:04;95759.81;;;1.81;100.00
11676;BME280;5894;42.768;23.404;2023-03-14T05:16:42;95721.97;;;1.68;100.00
11676;BME280;5894;42.768;23.404;2023-03-14T05:19:28;95748.03;;;1.95;100.00
11676;BME280;5894;42.768;23.404;2023-03-14T05:22:04;95700.13;;;1.69;100.00
11676;BME280;5894;42.768;23.404;2023-03-14T05:24:53;95729.47;;;1.87;100.00
11676;BME280;5894;42.768;23.404;2023-03-14T05:27:46;95723.91;;;1.78;100.00
11676;BME280;5894;42.768;23.404;2023-03-14T05:30:38;95738.13;;;1.92;100.00
11676;BME280;5894;42.768;23.404;2023-03-14T05:33:23;95733.00;;;1.97;100.00
11676;BME280;5894;42.768;23.404;2023-03-14T05:36:10;95739.56;;;2.05;100.00
11676;BME280;5894;42.768;23.404;2023-03-14T05:38:49;95744.34;;;2.13;100.00
11676;BME280;5894;42.768;23.404;2023-03-14T05:41:28;95748.03;;;2.17;100.00
11676;BME280;5894;42.768;23.404;2023-03-14T05:44:12;95742.84;;;2.17;100.00
11676;BME280;5894;42.768;23.404;2023-03-14T05:47:14;95730.97;;;2.26;100.00
11676;BME280;5894;42.768;23.404;2023-03-14T05:50:00;95738.09;;;2.36;100.00
11676;BME280;5894;42.768;23.404;2023-03-14T05:52:29;95731.31;;;2.35;100.00
11676;BME280;5894;42.768;23.404;2023-03-14T05:55:28;95748.88;;;2.49;100.00
11676;BME280;5894;42.768;23.404;2023-03-14T05:58:18;95735.13;;;2.54;100.00
11676;BME280;5894;42.768;23.404;2023-03-14T06:00:46;95745.66;;;2.64;100.00
11676;BME280;5894;42.768;23.404;2023-03-14T06:03:34;95746.22;;;2.71;100.00
11676;BME280;5894;42.768;23.404;2023-03-14T06:06:01;95743.69;;;2.76;100.00
11676;BME280;5894;42.768;23.404;2023-03-14T06:08:28;95739.34;;;2.87;100.00
11676;BME280;5894;42.768;23.404;2023-03-14T06:10:56;95744.34;;;2.93;100.00
11676;BME280;5894;42.768;23.404;2023-03-14T06:13:28;95741.31;;;3.07;100.00
11676;BME280;5894;42.768;23.404;2023-03-14T06:15:56;95740.91;;;3.20;100.00
11676;BME280;5894;42.768;23.404;2023-03-14T06:18:23;95695.69;;;3.04;100.00
11676;BME280;5894;42.768;23.404;2023-03-14T06:20:53;95738.69;;;3.39;100.00
11676;BME280;5894;42.768;23.404;2023-03-14T06:23:24;95741.31;;;3.44;100.00
11676;BME280;5894;42.768;23.404;2023-03-14T06:25:52;95751.28;;;3.52;100.00
11676;BME280;5894;42.768;23.404;2023-03-14T06:28:22;95748.25;;;3.70;100.00
11676;BME280;5894;42.768;23.404;2023-03-14T06:30:48;95692.09;;;3.52;100.00
11676;BME280;5894;42.768;23.404;2023-03-14T06:33:17;95742.63;;;3.93;100.00
11676;BME280;5894;42.768;23.404;2023-03-14T06:35:45;95739.03;;;4.04;100.00
11676;BME280;5894;42.768;23.404;2023-03-14T06:38:11;95742.22;;;4.22;100.00
11676;BME280;5894;42.768;23.404;2023-03-14T06:40:38;95731.53;;;4.23;94.97
11676;BME280;5894;42.768;23.404;2023-03-14T06:43:10;95688.13;;;4.02;94.92
11676;BME280;5894;42.768;23.404;2023-03-14T06:45:39;95731.31;;;4.45;93.52
11676;BME280;5894;42.768;23.404;2023-03-14T06:48:06;95733.69;;;4.57;93.00
11676;BME280;5894;42.768;23.404;2023-03-14T06:50:43;95731.63;;;4.64;92.38
11676;BME280;5894;42.768;23.404;2023-03-14T06:53:10;95731.63;;;4.79;91.53
11676;BME280;5894;42.768;23.404;2023-03-14T06:55:40;95717.28;;;4.87;90.92
11676;BME280;5894;42.768;23.404;2023-03-14T06:58:08;95697.41;;;4.96;90.13
11676;BME280;5894;42.768;23.404;2023-03-14T07:00:41;95721.72;;;5.16;88.62
11676;BME280;5894;42.768;23.404;2023-03-14T07:03:10;95717.75;;;5.34;89.51
11676;BME280;5894;42.768;23.404;2023-03-14T07:05:38;95711.72;;;5.44;84.23
11676;BME280;5894;42.768;23.404;2023-03-14T07:08:08;95707.28;;;5.49;84.86
11676;BME280;5894;42.768;23.404;2023-03-14T07:10:35;95688.44;;;5.47;84.74
11676;BME280;5894;42.768;23.404;2023-03-14T07:13:02;95708.75;;;5.81;84.78
11676;BME280;5894;42.768;23.404;2023-03-14T07:15:34;95697.72;;;5.94;84.59
11676;BME280;5894;42.768;23.404;2023-03-14T07:18:05;95698.50;;;6.00;81.88
11676;BME280;5894;42.768;23.404;2023-03-14T07:20:32;95700.03;;;6.11;81.91
11676;BME280;5894;42.768;23.404;2023-03-14T07:23:00;95637.56;;;5.84;80.04
11676;BME280;5894;42.768;23.404;2023-03-14T07:25:47;95695.75;;;6.25;80.90
11676;BME280;5894;42.768;23.404;2023-03-14T07:28:17;95706.69;;;6.37;81.97
11676;BME280;5894;42.768;23.404;2023-03-14T07:30:46;95681.22;;;6.53;81.03
11676;BME280;5894;42.768;23.404;2023-03-14T07:33:17;95686.84;;;6.70;80.83
11676;BME280;5894;42.768;23.404;2023-03-14T07:35:46;95657.84;;;6.56;78.30
11676;BME280;5894;42.768;23.404;2023-03-14T07:38:13;95689.56;;;6.89;78.28
11676;BME280;5894;42.768;23.404;2023-03-14T07:41:00;95687.72;;;6.94;73.29
11676;BME280;5894;42.768;23.404;2023-03-14T07:43:28;95677.53;;;6.88;73.79
11676;BME280;5894;42.768;23.404;2023-03-14T07:45:59;95676.66;;;6.97;73.95
11676;BME280;5894;42.768;23.404;2023-03-14T07:48:26;95672.63;;;7.10;74.32
11676;BME280;5894;42.768;23.404;2023-03-14T07:50:54;95675.53;;;7.09;71.47
11676;BME280;5894;42.768;23.404;2023-03-14T07:53:22;95638.34;;;6.73;72.55
11676;BME280;5894;42.768;23.404;2023-03-14T07:55:50;95665.28;;;7.12;74.61
11676;BME280;5894;42.768;23.404;2023-03-14T07:58:19;95669.50;;;7.08;72.59
11676;BME280;5894;42.768;23.404;2023-03-14T08:00:47;95666.22;;;7.21;73.20
11676;BME280;5894;42.768;23.404;2023-03-14T08:03:14;95666.94;;;7.27;73.32
11676;BME280;5894;42.768;23.404;2023-03-14T08:05:40;95665.59;;;7.34;72.23
11676;BME280;5894;42.768;23.404;2023-03-14T08:08:07;95655.63;;;7.31;72.73
11676;BME280;5894;42.768;23.404;2023-03-14T08:10:34;95663.94;;;7.38;71.78
11676;BME280;5894;42.768;23.404;2023-03-14T08:13:01;95663.41;;;7.42;72.54
11676;BME280;5894;42.768;23.404;2023-03-14T08:15:30;95647.22;;;7.34;71.19
11676;BME280;5894;42.768;23.404;2023-03-14T08:17:57;95555.66;;;6.85;69.39
11676;BME280;5894;42.768;23.404;2023-03-14T08:20:26;95659.78;;;7.61;72.27
11676;BME280;5894;42.768;23.404;2023-03-14T08:22:55;95647.88;;;7.69;68.71
11676;BME280;5894;42.768;23.404;2023-03-14T08:25:22;95648.38;;;7.71;68.68
11676;BME280;5894;42.768;23.404;2023-03-14T08:27:49;95656.59;;;7.64;65.33
11676;BME280;5894;42.768;23.404;2023-03-14T08:30:17;95648.06;;;7.78;66.47
11676;BME280;5894;42.768;23.404;2023-03-14T08:32:45;95653.66;;;7.90;64.82
11676;BME280;5894;42.768;23.404;2023-03-14T08:35:13;95640.53;;;7.90;65.88
11676;BME280;5894;42.768;23.404;2023-03-14T08:37:41;95634.09;;;8.01;68.35
11676;BME280;5894;42.768;23.404;2023-03-14T08:40:09;95596.47;;;7.87;68.92
11676;BME280;5894;42.768;23.404;2023-03-14T08:42:37;95630.72;;;8.19;67.29
11676;BME280;5894;42.768;23.404;2023-03-14T08:45:06;95590.22;;;8.01;65.47
11676;BME280;5894;42.768;23.404;2023-03-14T08:47:33;95611.47;;;8.24;63.31
11676;BME280;5894;42.768;23.404;2023-03-14T08:50:02;95615.75;;;8.38;64.52
11676;BME280;5894;42.768;23.404;2023-03-14T08:52:29;95613.25;;;8.47;65.45
11676;BME280;5894;42.768;23.404;2023-03-14T08:54:57;95609.19;;;8.55;63.09
11676;BME280;5894;42.768;23.404;2023-03-14T08:57:24;95604.34;;;8.62;64.60
11676;BME280;5894;42.768;23.404;2023-03-14T08:59:53;95572.69;;;8.53;64.67
11676;BME280;5894;42.768;23.404;2023-03-14T09:02:20;95587.28;;;8.78;62.19
11676;BME280;5894;42.768;23.404;2023-03-14T09:04:47;95589.31;;;8.81;62.08
11676;BME280;5894;42.768;23.404;2023-03-14T09:07:15;95582.03;;;8.92;63.19
11676;BME280;5894;42.768;23.404;2023-03-14T09:09:42;95584.50;;;9.02;63.10
11676;BME280;5894;42.768;23.404;2023-03-14T09:12:09;95563.75;;;9.00;62.40
11676;BME280;5894;42.768;23.404;2023-03-14T09:14:36;95589.88;;;9.10;61.06
11676;BME280;5894;42.768;23.404;2023-03-14T09:17:03;95573.69;;;9.17;59.54
11676;BME280;5894;42.768;23.404;2023-03-14T09:19:30;95562.19;;;9.27;61.33
11676;BME280;5894;42.768;23.404;2023-03-14T09:21:57;95542.50;;;9.24;60.58
11676;BME280;5894;42.768;23.404;2023-03-14T09:24:25;95546.91;;;9.42;62.62
11676;BME280;5894;42.768;23.404;2023-03-14T09:26:52;95548.53;;;9.52;60.81
11676;BME280;5894;42.768;23.404;2023-03-14T09:29:19;95545.00;;;9.56;59.80
11676;BME280;5894;42.768;23.404;2023-03-14T09:31:45;95515.19;;;9.47;59.76
11676;BME280;5894;42.768;23.404;2023-03-14T09:34:12;95524.28;;;9.55;58.68
11676;BME280;5894;42.768;23.404;2023-03-14T09:36:39;95533.59;;;9.75;61.08
11676;BME280;5894;42.768;23.404;2023-03-14T09:39:06;95512.31;;;9.71;59.81
11676;BME280;5894;42.768;23.404;2023-03-14T09:41:36;95507.34;;;9.70;60.96
11676;BME280;5894;42.768;23.404;2023-03-14T09:44:06;95519.50;;;9.93;60.03
11676;BME280;5894;42.768;23.404;2023-03-14T09:46:37;95514.09;;;9.98;59.01
11676;BME280;5894;42.768;23.404;2023-03-14T09:49:10;95502.69;;;10.03;58.64
11676;BME280;5894;42.768;23.404;2023-03-14T09:51:39;95383.44;;;9.30;58.97
11676;BME280;5894;42.768;23.404;2023-03-14T09:54:17;95422.53;;;9.59;57.25
11676;BME280;5894;42.768;23.404;2023-03-14T09:56:49;95493.53;;;10.22;56.83
11676;BME280;5894;42.768;23.404;2023-03-14T09:59:16;95479.78;;;10.25;59.61
11676;BME280;5894;42.768;23.404;2023-03-14T10:01:43;95479.34;;;10.32;59.03
11676;BME280;5894;42.768;23.404;2023-03-14T10:04:14;95470.53;;;10.37;56.76
11676;BME280;5894;42.768;23.404;2023-03-14T10:06:41;95460.44;;;10.39;59.81
11676;BME280;5894;42.768;23.404;2023-03-14T10:09:11;95455.72;;;10.49;59.42
11676;BME280;5894;42.768;23.404;2023-03-14T10:11:43;95452.94;;;10.54;57.78
11676;BME280;5894;42.768;23.404;2023-03-14T10:14:12;95451.31;;;10.67;59.23
11676;BME280;5894;42.768;23.404;2023-03-14T10:16:41;95445.78;;;10.77;57.26
11676;BME280;5894;42.768;23.404;2023-03-14T10:19:11;95428.81;;;10.70;58.56
11676;BME280;5894;42.768;23.404;2023-03-14T10:21:40;95443.00;;;10.91;58.35
11676;BME280;5894;42.768;23.404;2023-03-14T10:24:10;95435.13;;;10.99;57.01
11676;BME280;5894;42.768;23.404;2023-03-14T10:26:38;95425.81;;;11.02;55.71
11676;BME280;5894;42.768;23.404;2023-03-14T10:29:10;95418.69;;;11.11;56.23
11676;BME280;5894;42.768;23.404;2023-03-14T10:31:57;95415.75;;;11.13;57.43
11676;BME280;5894;42.768;23.404;2023-03-14T10:34:28;95406.63;;;11.27;57.50
11676;BME280;5894;42.768;23.404;2023-03-14T10:36:58;95397.31;;;11.30;57.47
11676;BME280;5894;42.768;23.404;2023-03-14T10:39:29;95399.97;;;11.38;56.34
11676;BME280;5894;42.768;23.404;2023-03-14T10:42:03;95388.44;;;11.43;53.72
11676;BME280;5894;42.768;23.404;2023-03-14T10:44:32;95376.81;;;11.44;57.26
11676;BME280;5894;42.768;23.404;2023-03-14T10:47:03;95376.81;;;11.53;56.73
11676;BME280;5894;42.768;23.404;2023-03-14T10:49:32;95361.59;;;11.58;55.08
11676;BME280;5894;42.768;23.404;2023-03-14T10:52:14;95354.75;;;11.66;55.56
11676;BME280;5894;42.768;23.404;2023-03-14T10:54:41;95347.59;;;11.75;55.38
11676;BME280;5894;42.768;23.404;2023-03-14T10:57:13;95344.31;;;11.87;54.83
11676;BME280;5894;42.768;23.404;2023-03-14T10:59:41;95335.59;;;11.95;54.83
11676;BME280;5894;42.768;23.404;2023-03-14T11:02:27;95324.25;;;12.03;53.58
11676;BME280;5894;42.768;23.404;2023-03-14T11:05:04;95318.00;;;12.07;53.95
11676;BME280;5894;42.768;23.404;2023-03-14T11:07:39;95304.94;;;12.11;53.39
11676;BME280;5894;42.768;23.404;2023-03-14T11:10:14;95313.75;;;12.24;51.58
11676;BME280;5894;42.768;23.404;2023-03-14T11:12:50;95299.56;;;12.28;50.21
11676;BME280;5894;42.768;23.404;2023-03-14T11:15:25;95289.88;;;12.41;51.70
11676;BME280;5894;42.768;23.404;2023-03-14T11:18:22;95289.84;;;12.49;52.56
11676;BME280;5894;42.768;23.404;2023-03-14T11:20:55;95278.72;;;12.65;49.18
11676;BME280;5894;42.768;23.404;2023-03-14T11:23:30;95276.00;;;12.73;49.96
11676;BME280;5894;42.768;23.404;2023-03-14T11:26:05;95255.72;;;12.77;49.67
11676;BME280;5894;42.768;23.404;2023-03-14T11:28:37;95253.06;;;12.86;50.76
11676;BME280;5894;42.768;23.404;2023-03-14T11:31:11;95238.97;;;12.94;51.08
11676;BME280;5894;42.768;23.404;2023-03-14T11:33:47;95170.34;;;12.47;52.01
11676;BME280;5894;42.768;23.404;2023-03-14T11:36:18;95230.81;;;12.99;52.32
11676;BME280;5894;42.768;23.404;2023-03-14T11:38:49;95232.19;;;13.05;52.56
11676;BME280;5894;42.768;23.404;2023-03-14T11:41:18;95221.56;;;13.14;50.35
11676;BME280;5894;42.768;23.404;2023-03-14T11:43:48;95218.19;;;13.26;49.25
11676;BME280;5894;42.768;23.404;2023-03-14T11:46:18;95221.59;;;13.26;49.03
11676;BME280;5894;42.768;23.404;2023-03-14T11:48:57;95200.09;;;13.40;46.98
11676;BME280;5894;42.768;23.404;2023-03-14T11:51:28;95196.84;;;13.55;46.00
11676;BME280;5894;42.768;23.404;2023-03-14T11:53:59;95191.31;;;13.60;46.47
11676;BME280;5894;42.768;23.404;2023-03-14T11:56:33;95187.25;;;13.63;47.83
11676;BME280;5894;42.768;23.404;2023-03-14T11:59:03;95179.53;;;13.70;48.57
11676;BME280;5894;42.768;23.404;2023-03-14T12:01:40;95171.03;;;13.64;50.49
11676;BME280;5894;42.768;23.404;2023-03-14T12:04:15;95168.81;;;13.66;46.42
11676;BME280;5894;42.768;23.404;2023-03-14T12:06:47;95129.28;;;13.61;47.83
11676;BME280;5894;42.768;23.404;2023-03-14T12:09:15;95163.09;;;13.88;49.16
11676;BME280;5894;42.768;23.404;2023-03-14T12:11:45;95152.16;;;13.90;46.79
11676;BME280;5894;42.768;23.404;2023-03-14T12:14:19;95139.56;;;13.87;47.60
11676;BME280;5894;42.768;23.404;2023-03-14T12:16:47;95144.31;;;14.06;47.04
11676;BME280;5894;42.768;23.404;2023-03-14T12:19:29;95141.66;;;14.06;44.13
11676;BME280;5894;42.768;23.404;2023-03-14T12:22:01;95136.00;;;14.31;44.43
11676;BME280;5894;42.768;23.404;2023-03-14T12:24:34;95123.28;;;14.49;46.21
11676;BME280;5894;42.768;23.404;2023-03-14T12:27:03;95125.19;;;14.64;43.57
11676;BME280;5894;42.768;23.404;2023-03-14T12:29:31;95121.41;;;14.78;42.15
11676;BME280;5894;42.768;23.404;2023-03-14T12:32:12;95090.47;;;14.69;41.58
11676;BME280;5894;42.768;23.404;2023-03-14T12:34:49;95065.19;;;14.60;42.64
11676;BME280;5894;42.768;23.404;2023-03-14T12:37:25;95103.28;;;14.95;43.22
11676;BME280;5894;42.768;23.404;2023-03-14T12:40:03;95077.59;;;14.84;43.14
11676;BME280;5894;42.768;23.404;2023-03-14T12:42:43;95099.38;;;15.05;42.79
11676;BME280;5894;42.768;23.404;2023-03-14T12:45:21;95092.25;;;15.09;41.41
11676;BME280;5894;42.768;23.404;2023-03-14T12:47:53;95093.13;;;15.13;41.19
11676;BME280;5894;42.768;23.404;2023-03-14T12:50:26;95086.72;;;15.14;39.90
11676;BME280;5894;42.768;23.404;2023-03-14T12:53:22;95079.78;;;15.25;40.97
11676;BME280;5894;42.768;23.404;2023-03-14T12:55:58;95070.88;;;15.33;38.33
11676;BME280;5894;42.768;23.404;2023-03-14T12:58:34;95070.19;;;15.36;38.69
11676;BME280;5894;42.768;23.404;2023-03-14T13:01:06;95058.19;;;15.42;37.81
11676;BME280;5894;42.768;23.404;2023-03-14T13:03:45;95055.19;;;15.44;40.28
11676;BME280;5894;42.768;23.404;2023-03-14T13:06:48;95051.41;;;15.45;38.11
11676;BME280;5894;42.768;23.404;2023-03-14T13:09:36;95048.16;;;15.52;37.60
11676;BME280;5894;42.768;23.404;2023-03-14T13:12:17;95044.22;;;15.46;39.18
11676;BME280;5894;42.768;23.404;2023-03-14T13:14:45;95038.75;;;15.54;38.87
11676;BME280;5894;42.768;23.404;2023-03-14T13:17:14;95029.97;;;15.54;38.63
11676;BME280;5894;42.768;23.404;2023-03-14T13:19:43;95016.25;;;15.52;40.79
11676;BME280;5894;42.768;23.404;2023-03-14T13:22:23;95025.69;;;15.65;38.04
11676;BME280;5894;42.768;23.404;2023-03-14T13:24:58;95014.97;;;15.61;37.68